Terminal Aerodrome Forecast
Issued by NWS

Home | Current Version | Previous Version | Text Only | Print | Product List | Glossary On
Versions: 1 2 3 4 5 6 7 8 9 10 11 12 13 14 15 16 17
000
FTUS43 KAPX 110500
TAFAPN
TAF
KAPN 110525Z 1106/1206 00000KT P6SM SKC
     FM111500 17007KT P6SM SKC
     FM111900 14010KT P6SM SCT050
     FM120000 16005KT P6SM FEW060 BKN160=

USA.gov is the U.S. government's official web portal to all federal, state and local government web resources and services.